Flugplatz Ansbach Army Heliport

Bericht für ETEB

vom 21.07. um 19:56 UTC

kein Wind

Sichtweite 10 km oder mehr

keine Wolken

Temperatur 22.3°C

Taupunkt 11.7°C

Luftfeuchtigkeit 51%

Luftdruck 1024 hPa

ETEB 211956Z AUTO 00000KT 9999 CLR 22/12 A3023 RMK AO2 SLP229 T02230117 $
Keine Prognose (TAF) verfügbar.
Impressum